sensor_id;sensor_type;location;lat;lon;timestamp;P1;durP1;ratioP1;P2;durP2;ratioP2
4698;SDS011;33708;49.466;11.176;2023-02-26T00:00:29;11.10;;;2.00;;
4698;SDS011;33708;49.466;11.176;2023-02-26T00:02:55;9.67;;;1.60;;
4698;SDS011;33708;49.466;11.176;2023-02-26T00:05:21;17.33;;;2.37;;
4698;SDS011;33708;49.466;11.176;2023-02-26T00:07:50;11.77;;;1.67;;
4698;SDS011;33708;49.466;11.176;2023-02-26T00:10:15;8.00;;;1.70;;
4698;SDS011;33708;49.466;11.176;2023-02-26T00:12:42;10.13;;;1.70;;
4698;SDS011;33708;49.466;11.176;2023-02-26T00:15:09;9.83;;;1.63;;
4698;SDS011;33708;49.466;11.176;2023-02-26T00:20:23;9.20;;;1.40;;
4698;SDS011;33708;49.466;11.176;2023-02-26T00:22:50;7.07;;;1.33;;
4698;SDS011;33708;49.466;11.176;2023-02-26T00:25:16;12.27;;;1.80;;
4698;SDS011;33708;49.466;11.176;2023-02-26T00:27:42;9.47;;;1.57;;
4698;SDS011;33708;49.466;11.176;2023-02-26T00:30:08;10.20;;;1.77;;
4698;SDS011;33708;49.466;11.176;2023-02-26T00:32:34;7.90;;;1.50;;
4698;SDS011;33708;49.466;11.176;2023-02-26T00:35:01;10.93;;;1.57;;
4698;SDS011;33708;49.466;11.176;2023-02-26T00:42:39;11.23;;;1.67;;
4698;SDS011;33708;49.466;11.176;2023-02-26T00:45:05;9.13;;;1.20;;
4698;SDS011;33708;49.466;11.176;2023-02-26T00:55:22;8.93;;;1.60;;
4698;SDS011;33708;49.466;11.176;2023-02-26T00:57:47;8.70;;;1.87;;
4698;SDS011;33708;49.466;11.176;2023-02-26T01:00:13;7.00;;;1.50;;
4698;SDS011;33708;49.466;11.176;2023-02-26T01:02:40;9.30;;;1.80;;
4698;SDS011;33708;49.466;11.176;2023-02-26T01:05:06;9.97;;;1.53;;
4698;SDS011;33708;49.466;11.176;2023-02-26T01:07:43;10.23;;;1.67;;
4698;SDS011;33708;49.466;11.176;2023-02-26T01:10:29;13.90;;;2.27;;
4698;SDS011;33708;49.466;11.176;2023-02-26T01:12:56;9.83;;;1.53;;
4698;SDS011;33708;49.466;11.176;2023-02-26T01:15:22;9.33;;;1.47;;
4698;SDS011;33708;49.466;11.176;2023-02-26T01:20:39;8.67;;;1.70;;
4698;SDS011;33708;49.466;11.176;2023-02-26T01:23:30;8.20;;;1.60;;
4698;SDS011;33708;49.466;11.176;2023-02-26T01:26:06;9.40;;;1.87;;
4698;SDS011;33708;49.466;11.176;2023-02-26T01:28:56;9.53;;;1.73;;
4698;SDS011;33708;49.466;11.176;2023-02-26T01:36:59;9.77;;;2.07;;
4698;SDS011;33708;49.466;11.176;2023-02-26T01:42:06;8.80;;;1.87;;
4698;SDS011;33708;49.466;11.176;2023-02-26T01:50:23;10.77;;;1.53;;
4698;SDS011;33708;49.466;11.176;2023-02-26T01:55:43;9.53;;;1.80;;
4698;SDS011;33708;49.466;11.176;2023-02-26T01:58:10;8.70;;;2.20;;
4698;SDS011;33708;49.466;11.176;2023-02-26T02:00:37;8.53;;;2.13;;
4698;SDS011;33708;49.466;11.176;2023-02-26T02:03:02;8.40;;;2.00;;
4698;SDS011;33708;49.466;11.176;2023-02-26T02:07:57;10.87;;;2.07;;
4698;SDS011;33708;49.466;11.176;2023-02-26T02:10:24;9.70;;;2.13;;
4698;SDS011;33708;49.466;11.176;2023-02-26T02:15:35;9.73;;;1.60;;
4698;SDS011;33708;49.466;11.176;2023-02-26T02:18:12;7.80;;;1.60;;
4698;SDS011;33708;49.466;11.176;2023-02-26T02:23:14;10.80;;;1.90;;
4698;SDS011;33708;49.466;11.176;2023-02-26T02:26:14;9.17;;;1.57;;
4698;SDS011;33708;49.466;11.176;2023-02-26T02:28:59;10.80;;;1.00;;
4698;SDS011;33708;49.466;11.176;2023-02-26T02:31:27;7.73;;;1.40;;
4698;SDS011;33708;49.466;11.176;2023-02-26T02:34:11;8.57;;;1.60;;
4698;SDS011;33708;49.466;11.176;2023-02-26T02:36:45;8.20;;;1.73;;
4698;SDS011;33708;49.466;11.176;2023-02-26T02:39:26;10.03;;;1.83;;
4698;SDS011;33708;49.466;11.176;2023-02-26T02:42:04;7.70;;;1.87;;
4698;SDS011;33708;49.466;11.176;2023-02-26T02:44:35;7.70;;;1.50;;
4698;SDS011;33708;49.466;11.176;2023-02-26T02:47:05;7.83;;;1.80;;
4698;SDS011;33708;49.466;11.176;2023-02-26T02:49:35;12.20;;;1.63;;
4698;SDS011;33708;49.466;11.176;2023-02-26T02:52:07;8.90;;;1.50;;
4698;SDS011;33708;49.466;11.176;2023-02-26T02:54:56;7.83;;;1.37;;
4698;SDS011;33708;49.466;11.176;2023-02-26T02:57:34;9.07;;;1.53;;
4698;SDS011;33708;49.466;11.176;2023-02-26T03:00:06;11.73;;;1.63;;
4698;SDS011;33708;49.466;11.176;2023-02-26T03:05:35;7.93;;;2.20;;
4698;SDS011;33708;49.466;11.176;2023-02-26T03:08:03;9.33;;;1.83;;
4698;SDS011;33708;49.466;11.176;2023-02-26T03:10:32;10.07;;;1.50;;
4698;SDS011;33708;49.466;11.176;2023-02-26T03:12:58;9.77;;;1.60;;
4698;SDS011;33708;49.466;11.176;2023-02-26T03:21:34;8.73;;;1.87;;
4698;SDS011;33708;49.466;11.176;2023-02-26T03:24:03;9.30;;;1.20;;
4698;SDS011;33708;49.466;11.176;2023-02-26T03:26:50;8.03;;;1.70;;
4698;SDS011;33708;49.466;11.176;2023-02-26T03:29:40;9.30;;;2.10;;
4698;SDS011;33708;49.466;11.176;2023-02-26T03:35:03;10.20;;;1.47;;
4698;SDS011;33708;49.466;11.176;2023-02-26T03:37:37;7.30;;;1.37;;
4698;SDS011;33708;49.466;11.176;2023-02-26T03:40:22;10.10;;;1.30;;
4698;SDS011;33708;49.466;11.176;2023-02-26T03:42:59;8.70;;;1.70;;
4698;SDS011;33708;49.466;11.176;2023-02-26T03:45:33;7.93;;;1.30;;
4698;SDS011;33708;49.466;11.176;2023-02-26T03:48:00;11.43;;;1.87;;
4698;SDS011;33708;49.466;11.176;2023-02-26T03:53:06;8.60;;;1.40;;
4698;SDS011;33708;49.466;11.176;2023-02-26T03:56:39;9.03;;;1.97;;
4698;SDS011;33708;49.466;11.176;2023-02-26T03:58:34;8.77;;;1.10;;
4698;SDS011;33708;49.466;11.176;2023-02-26T04:01:04;7.17;;;1.30;;
4698;SDS011;33708;49.466;11.176;2023-02-26T04:03:43;7.57;;;1.50;;
4698;SDS011;33708;49.466;11.176;2023-02-26T04:06:13;8.20;;;1.37;;
4698;SDS011;33708;49.466;11.176;2023-02-26T04:08:39;11.80;;;1.77;;
4698;SDS011;33708;49.466;11.176;2023-02-26T04:11:13;13.70;;;1.80;;
4698;SDS011;33708;49.466;11.176;2023-02-26T04:13:41;6.10;;;1.30;;
4698;SDS011;33708;49.466;11.176;2023-02-26T04:16:07;11.47;;;1.67;;
4698;SDS011;33708;49.466;11.176;2023-02-26T04:18:32;10.50;;;1.53;;
4698;SDS011;33708;49.466;11.176;2023-02-26T04:20:58;10.07;;;1.90;;
4698;SDS011;33708;49.466;11.176;2023-02-26T04:23:24;10.03;;;1.83;;
4698;SDS011;33708;49.466;11.176;2023-02-26T04:25:50;8.97;;;1.70;;
4698;SDS011;33708;49.466;11.176;2023-02-26T04:28:15;10.53;;;2.10;;
4698;SDS011;33708;49.466;11.176;2023-02-26T04:30:41;8.03;;;1.37;;
4698;SDS011;33708;49.466;11.176;2023-02-26T04:33:07;9.17;;;1.67;;
4698;SDS011;33708;49.466;11.176;2023-02-26T04:35:33;15.73;;;1.77;;
4698;SDS011;33708;49.466;11.176;2023-02-26T04:37:58;10.07;;;1.80;;
4698;SDS011;33708;49.466;11.176;2023-02-26T04:40:24;14.70;;;2.87;;
4698;SDS011;33708;49.466;11.176;2023-02-26T04:42:50;25.73;;;6.87;;
4698;SDS011;33708;49.466;11.176;2023-02-26T04:45:15;20.60;;;5.20;;
4698;SDS011;33708;49.466;11.176;2023-02-26T04:47:41;12.67;;;3.00;;
4698;SDS011;33708;49.466;11.176;2023-02-26T04:50:07;14.87;;;3.30;;
4698;SDS011;33708;49.466;11.176;2023-02-26T04:52:33;13.17;;;1.87;;
4698;SDS011;33708;49.466;11.176;2023-02-26T04:54:58;12.47;;;2.17;;
4698;SDS011;33708;49.466;11.176;2023-02-26T04:57:24;9.13;;;1.90;;
4698;SDS011;33708;49.466;11.176;2023-02-26T04:59:50;17.70;;;5.43;;
4698;SDS011;33708;49.466;11.176;2023-02-26T05:02:16;17.37;;;5.87;;
4698;SDS011;33708;49.466;11.176;2023-02-26T05:04:42;15.87;;;5.00;;
4698;SDS011;33708;49.466;11.176;2023-02-26T05:07:07;17.90;;;4.73;;
4698;SDS011;33708;49.466;11.176;2023-02-26T05:09:33;16.93;;;4.47;;
4698;SDS011;33708;49.466;11.176;2023-02-26T05:11:58;13.40;;;4.20;;
4698;SDS011;33708;49.466;11.176;2023-02-26T05:14:24;10.20;;;2.70;;
4698;SDS011;33708;49.466;11.176;2023-02-26T05:16:49;9.50;;;2.40;;
4698;SDS011;33708;49.466;11.176;2023-02-26T05:19:15;11.00;;;2.20;;
4698;SDS011;33708;49.466;11.176;2023-02-26T05:21:41;11.93;;;1.83;;
4698;SDS011;33708;49.466;11.176;2023-02-26T05:24:06;11.00;;;2.70;;
4698;SDS011;33708;49.466;11.176;2023-02-26T05:26:32;9.07;;;2.40;;
4698;SDS011;33708;49.466;11.176;2023-02-26T05:28:58;8.63;;;2.10;;
4698;SDS011;33708;49.466;11.176;2023-02-26T05:31:23;7.60;;;2.00;;
4698;SDS011;33708;49.466;11.176;2023-02-26T05:33:50;10.63;;;1.63;;
4698;SDS011;33708;49.466;11.176;2023-02-26T05:36:16;11.20;;;1.93;;
4698;SDS011;33708;49.466;11.176;2023-02-26T05:38:42;7.30;;;1.43;;
4698;SDS011;33708;49.466;11.176;2023-02-26T05:41:07;7.17;;;1.60;;
4698;SDS011;33708;49.466;11.176;2023-02-26T05:43:33;7.23;;;1.50;;
4698;SDS011;33708;49.466;11.176;2023-02-26T05:45:59;6.87;;;1.40;;
4698;SDS011;33708;49.466;11.176;2023-02-26T05:48:25;7.17;;;1.57;;
4698;SDS011;33708;49.466;11.176;2023-02-26T05:50:51;7.90;;;1.30;;
4698;SDS011;33708;49.466;11.176;2023-02-26T05:53:17;8.80;;;1.50;;
4698;SDS011;33708;49.466;11.176;2023-02-26T05:55:43;8.00;;;1.47;;
4698;SDS011;33708;49.466;11.176;2023-02-26T05:58:08;9.90;;;1.50;;
4698;SDS011;33708;49.466;11.176;2023-02-26T06:00:34;8.77;;;1.03;;
4698;SDS011;33708;49.466;11.176;2023-02-26T06:03:00;6.70;;;1.20;;
4698;SDS011;33708;49.466;11.176;2023-02-26T06:05:25;7.87;;;1.30;;
4698;SDS011;33708;49.466;11.176;2023-02-26T06:07:51;9.40;;;1.43;;
4698;SDS011;33708;49.466;11.176;2023-02-26T06:10:17;8.57;;;1.33;;
4698;SDS011;33708;49.466;11.176;2023-02-26T06:12:42;8.33;;;1.70;;
4698;SDS011;33708;49.466;11.176;2023-02-26T06:15:08;6.47;;;1.30;;
4698;SDS011;33708;49.466;11.176;2023-02-26T06:17:34;8.43;;;1.50;;
4698;SDS011;33708;49.466;11.176;2023-02-26T06:20:01;6.90;;;1.33;;
4698;SDS011;33708;49.466;11.176;2023-02-26T06:22:27;8.00;;;1.40;;
4698;SDS011;33708;49.466;11.176;2023-02-26T06:24:53;12.00;;;1.50;;
4698;SDS011;33708;49.466;11.176;2023-02-26T06:27:19;7.20;;;1.40;;
4698;SDS011;33708;49.466;11.176;2023-02-26T06:29:46;11.47;;;1.90;;
4698;SDS011;33708;49.466;11.176;2023-02-26T06:32:11;10.20;;;1.50;;
4698;SDS011;33708;49.466;11.176;2023-02-26T06:34:37;9.47;;;1.60;;
4698;SDS011;33708;49.466;11.176;2023-02-26T06:37:03;11.40;;;1.60;;
4698;SDS011;33708;49.466;11.176;2023-02-26T06:39:28;14.00;;;1.30;;
4698;SDS011;33708;49.466;11.176;2023-02-26T06:41:54;9.17;;;1.97;;
4698;SDS011;33708;49.466;11.176;2023-02-26T06:44:19;10.27;;;1.40;;
4698;SDS011;33708;49.466;11.176;2023-02-26T06:46:45;6.97;;;1.30;;
4698;SDS011;33708;49.466;11.176;2023-02-26T06:49:11;7.23;;;1.03;;
4698;SDS011;33708;49.466;11.176;2023-02-26T06:51:36;8.67;;;1.37;;
4698;SDS011;33708;49.466;11.176;2023-02-26T06:54:02;8.70;;;1.83;;
4698;SDS011;33708;49.466;11.176;2023-02-26T06:56:28;6.30;;;1.00;;
4698;SDS011;33708;49.466;11.176;2023-02-26T06:58:55;9.13;;;1.33;;
4698;SDS011;33708;49.466;11.176;2023-02-26T07:01:21;8.13;;;1.57;;
4698;SDS011;33708;49.466;11.176;2023-02-26T07:03:48;15.00;;;1.30;;
4698;SDS011;33708;49.466;11.176;2023-02-26T07:06:13;7.63;;;1.20;;
4698;SDS011;33708;49.466;11.176;2023-02-26T07:08:40;10.03;;;1.90;;
4698;SDS011;33708;49.466;11.176;2023-02-26T07:11:06;9.30;;;1.37;;
4698;SDS011;33708;49.466;11.176;2023-02-26T07:13:32;8.00;;;1.20;;
4698;SDS011;33708;49.466;11.176;2023-02-26T07:15:58;8.50;;;1.30;;
4698;SDS011;33708;49.466;11.176;2023-02-26T07:18:23;9.53;;;1.77;;
4698;SDS011;33708;49.466;11.176;2023-02-26T07:20:49;8.77;;;1.57;;
4698;SDS011;33708;49.466;11.176;2023-02-26T07:23:15;9.60;;;1.67;;
4698;SDS011;33708;49.466;11.176;2023-02-26T07:25:41;11.03;;;1.53;;
4698;SDS011;33708;49.466;11.176;2023-02-26T07:28:06;8.07;;;1.63;;
4698;SDS011;33708;49.466;11.176;2023-02-26T07:30:32;11.30;;;2.30;;
4698;SDS011;33708;49.466;11.176;2023-02-26T07:32:58;8.30;;;2.23;;
4698;SDS011;33708;49.466;11.176;2023-02-26T07:35:23;8.57;;;2.37;;
4698;SDS011;33708;49.466;11.176;2023-02-26T07:37:49;12.40;;;2.00;;
4698;SDS011;33708;49.466;11.176;2023-02-26T07:40:16;9.50;;;1.63;;
4698;SDS011;33708;49.466;11.176;2023-02-26T07:42:42;8.10;;;2.00;;
4698;SDS011;33708;49.466;11.176;2023-02-26T07:45:08;10.10;;;1.63;;
4698;SDS011;33708;49.466;11.176;2023-02-26T07:47:34;7.40;;;1.30;;
4698;SDS011;33708;49.466;11.176;2023-02-26T07:50:00;8.70;;;1.57;;
4698;SDS011;33708;49.466;11.176;2023-02-26T07:52:25;10.50;;;1.73;;
4698;SDS011;33708;49.466;11.176;2023-02-26T07:54:52;9.57;;;2.30;;
4698;SDS011;33708;49.466;11.176;2023-02-26T07:57:18;9.23;;;2.00;;
4698;SDS011;33708;49.466;11.176;2023-02-26T07:59:44;7.93;;;1.80;;
4698;SDS011;33708;49.466;11.176;2023-02-26T08:02:10;8.60;;;1.70;;
4698;SDS011;33708;49.466;11.176;2023-02-26T08:04:36;8.93;;;1.73;;
4698;SDS011;33708;49.466;11.176;2023-02-26T08:07:02;9.70;;;1.80;;
4698;SDS011;33708;49.466;11.176;2023-02-26T08:09:28;7.90;;;1.67;;
4698;SDS011;33708;49.466;11.176;2023-02-26T08:11:54;8.53;;;1.57;;
4698;SDS011;33708;49.466;11.176;2023-02-26T08:14:20;9.73;;;1.90;;
4698;SDS011;33708;49.466;11.176;2023-02-26T08:16:46;9.50;;;1.70;;
4698;SDS011;33708;49.466;11.176;2023-02-26T08:19:12;8.60;;;1.90;;
4698;SDS011;33708;49.466;11.176;2023-02-26T08:21:38;8.20;;;1.80;;
4698;SDS011;33708;49.466;11.176;2023-02-26T08:24:04;7.37;;;1.60;;
4698;SDS011;33708;49.466;11.176;2023-02-26T08:26:30;9.50;;;2.00;;
4698;SDS011;33708;49.466;11.176;2023-02-26T08:28:55;8.70;;;2.10;;
4698;SDS011;33708;49.466;11.176;2023-02-26T08:31:21;8.77;;;1.80;;
4698;SDS011;33708;49.466;11.176;2023-02-26T08:33:46;7.20;;;1.60;;
4698;SDS011;33708;49.466;11.176;2023-02-26T08:36:12;7.23;;;1.70;;
4698;SDS011;33708;49.466;11.176;2023-02-26T08:38:38;7.47;;;1.53;;
4698;SDS011;33708;49.466;11.176;2023-02-26T08:41:04;10.33;;;2.63;;
4698;SDS011;33708;49.466;11.176;2023-02-26T08:43:30;11.43;;;1.60;;
4698;SDS011;33708;49.466;11.176;2023-02-26T08:45:56;7.83;;;1.67;;
4698;SDS011;33708;49.466;11.176;2023-02-26T08:48:22;7.93;;;1.50;;
4698;SDS011;33708;49.466;11.176;2023-02-26T08:50:48;10.30;;;1.60;;
4698;SDS011;33708;49.466;11.176;2023-02-26T08:53:14;8.13;;;1.40;;
4698;SDS011;33708;49.466;11.176;2023-02-26T08:55:40;11.70;;;1.77;;
4698;SDS011;33708;49.466;11.176;2023-02-26T08:58:08;7.90;;;1.90;;
4698;SDS011;33708;49.466;11.176;2023-02-26T09:00:34;7.90;;;1.63;;
4698;SDS011;33708;49.466;11.176;2023-02-26T09:03:00;8.40;;;1.73;;
4698;SDS011;33708;49.466;11.176;2023-02-26T09:05:25;8.97;;;1.70;;
4698;SDS011;33708;49.466;11.176;2023-02-26T09:07:51;7.40;;;1.60;;
4698;SDS011;33708;49.466;11.176;2023-02-26T09:10:17;10.20;;;1.63;;
4698;SDS011;33708;49.466;11.176;2023-02-26T09:12:42;6.90;;;1.30;;
4698;SDS011;33708;49.466;11.176;2023-02-26T09:15:09;8.30;;;1.47;;
4698;SDS011;33708;49.466;11.176;2023-02-26T09:17:35;7.83;;;1.30;;
4698;SDS011;33708;49.466;11.176;2023-02-26T09:20:01;7.93;;;1.53;;
4698;SDS011;33708;49.466;11.176;2023-02-26T09:22:28;7.97;;;1.30;;
4698;SDS011;33708;49.466;11.176;2023-02-26T09:24:54;6.90;;;1.10;;
4698;SDS011;33708;49.466;11.176;2023-02-26T09:27:20;14.67;;;1.83;;
4698;SDS011;33708;49.466;11.176;2023-02-26T09:29:45;8.00;;;1.20;;
4698;SDS011;33708;49.466;11.176;2023-02-26T09:32:11;10.67;;;1.27;;
4698;SDS011;33708;49.466;11.176;2023-02-26T09:34:37;7.40;;;1.40;;
4698;SDS011;33708;49.466;11.176;2023-02-26T09:37:03;9.10;;;1.37;;
4698;SDS011;33708;49.466;11.176;2023-02-26T09:39:30;6.57;;;1.03;;
4698;SDS011;33708;49.466;11.176;2023-02-26T09:41:57;6.80;;;1.00;;
4698;SDS011;33708;49.466;11.176;2023-02-26T09:44:33;6.87;;;1.00;;
4698;SDS011;33708;49.466;11.176;2023-02-26T09:52:19;9.03;;;1.03;;
4698;SDS011;33708;49.466;11.176;2023-02-26T09:54:49;10.63;;;1.00;;
4698;SDS011;33708;49.466;11.176;2023-02-26T09:57:37;6.50;;;0.90;;
4698;SDS011;33708;49.466;11.176;2023-02-26T10:00:30;8.60;;;1.00;;
4698;SDS011;33708;49.466;11.176;2023-02-26T10:14:17;6.30;;;0.83;;
4698;SDS011;33708;49.466;11.176;2023-02-26T10:16:52;7.70;;;1.30;;
4698;SDS011;33708;49.466;11.176;2023-02-26T10:19:24;6.50;;;1.07;;
4698;SDS011;33708;49.466;11.176;2023-02-26T10:21:56;7.60;;;1.50;;
4698;SDS011;33708;49.466;11.176;2023-02-26T10:24:37;7.63;;;0.97;;
4698;SDS011;33708;49.466;11.176;2023-02-26T10:27:21;7.07;;;1.10;;
4698;SDS011;33708;49.466;11.176;2023-02-26T10:30:03;9.20;;;1.00;;
4698;SDS011;33708;49.466;11.176;2023-02-26T10:35:06;6.30;;;0.70;;
4698;SDS011;33708;49.466;11.176;2023-02-26T10:37:43;7.80;;;0.90;;
4698;SDS011;33708;49.466;11.176;2023-02-26T10:51:15;7.10;;;0.97;;
4698;SDS011;33708;49.466;11.176;2023-02-26T10:53:51;6.63;;;0.93;;
4698;SDS011;33708;49.466;11.176;2023-02-26T10:56:30;6.03;;;0.70;;
4698;SDS011;33708;49.466;11.176;2023-02-26T10:58:57;6.90;;;1.00;;
4698;SDS011;33708;49.466;11.176;2023-02-26T11:01:25;6.63;;;0.80;;
4698;SDS011;33708;49.466;11.176;2023-02-26T11:03:57;10.97;;;0.90;;
4698;SDS011;33708;49.466;11.176;2023-02-26T11:06:33;6.50;;;0.70;;
4698;SDS011;33708;49.466;11.176;2023-02-26T11:09:24;6.20;;;0.70;;
4698;SDS011;33708;49.466;11.176;2023-02-26T11:12:04;8.27;;;1.00;;
4698;SDS011;33708;49.466;11.176;2023-02-26T11:14:30;6.37;;;0.80;;
4698;SDS011;33708;49.466;11.176;2023-02-26T11:16:59;7.87;;;1.00;;
4698;SDS011;33708;49.466;11.176;2023-02-26T11:19:32;6.97;;;1.10;;
4698;SDS011;33708;49.466;11.176;2023-02-26T11:22:00;6.67;;;0.97;;
4698;SDS011;33708;49.466;11.176;2023-02-26T11:24:39;6.97;;;0.90;;
4698;SDS011;33708;49.466;11.176;2023-02-26T11:27:23;6.53;;;1.00;;
4698;SDS011;33708;49.466;11.176;2023-02-26T11:30:03;6.40;;;1.00;;
4698;SDS011;33708;49.466;11.176;2023-02-26T11:32:38;6.63;;;1.10;;
4698;SDS011;33708;49.466;11.176;2023-02-26T11:35:07;6.40;;;0.93;;
4698;SDS011;33708;49.466;11.176;2023-02-26T11:37:34;9.50;;;1.10;;
4698;SDS011;33708;49.466;11.176;2023-02-26T11:40:04;7.00;;;0.93;;
4698;SDS011;33708;49.466;11.176;2023-02-26T11:42:46;6.67;;;1.00;;
4698;SDS011;33708;49.466;11.176;2023-02-26T11:45:19;7.70;;;1.03;;
4698;SDS011;33708;49.466;11.176;2023-02-26T11:47:58;7.00;;;0.90;;
4698;SDS011;33708;49.466;11.176;2023-02-26T11:50:38;9.40;;;2.00;;
4698;SDS011;33708;49.466;11.176;2023-02-26T11:56:10;6.97;;;1.00;;
4698;SDS011;33708;49.466;11.176;2023-02-26T11:58:39;7.37;;;0.90;;
4698;SDS011;33708;49.466;11.176;2023-02-26T12:01:07;9.40;;;1.10;;
4698;SDS011;33708;49.466;11.176;2023-02-26T12:03:37;9.33;;;1.07;;
4698;SDS011;33708;49.466;11.176;2023-02-26T12:06:04;8.13;;;1.20;;
4698;SDS011;33708;49.466;11.176;2023-02-26T12:08:33;6.73;;;0.97;;
4698;SDS011;33708;49.466;11.176;2023-02-26T12:16:25;7.20;;;1.00;;
4698;SDS011;33708;49.466;11.176;2023-02-26T12:29:49;13.10;;;1.30;;
4698;SDS011;33708;49.466;11.176;2023-02-26T12:45:03;7.33;;;1.03;;
4698;SDS011;33708;49.466;11.176;2023-02-26T12:59:29;7.23;;;1.00;;
4698;SDS011;33708;49.466;11.176;2023-02-26T13:04:35;7.20;;;1.10;;
4698;SDS011;33708;49.466;11.176;2023-02-26T13:13:00;7.33;;;1.00;;
4698;SDS011;33708;49.466;11.176;2023-02-26T13:21:42;8.17;;;1.23;;
4698;SDS011;33708;49.466;11.176;2023-02-26T13:24:46;9.47;;;1.20;;
4698;SDS011;33708;49.466;11.176;2023-02-26T13:27:07;6.83;;;1.33;;
4698;SDS011;33708;49.466;11.176;2023-02-26T13:29:37;7.77;;;0.90;;
4698;SDS011;33708;49.466;11.176;2023-02-26T13:32:10;7.03;;;0.90;;
4698;SDS011;33708;49.466;11.176;2023-02-26T13:37:38;7.93;;;1.40;;
4698;SDS011;33708;49.466;11.176;2023-02-26T13:48:56;8.00;;;1.23;;
4698;SDS011;33708;49.466;11.176;2023-02-26T14:09:43;16.40;;;1.30;;
4698;SDS011;33708;49.466;11.176;2023-02-26T14:14:45;7.30;;;1.43;;
4698;SDS011;33708;49.466;11.176;2023-02-26T14:17:51;7.67;;;0.93;;
4698;SDS011;33708;49.466;11.176;2023-02-26T14:20:26;6.70;;;1.20;;
4698;SDS011;33708;49.466;11.176;2023-02-26T14:26:10;9.60;;;1.00;;
4698;SDS011;33708;49.466;11.176;2023-02-26T14:28:32;6.77;;;0.90;;
4698;SDS011;33708;49.466;11.176;2023-02-26T14:33:30;9.07;;;1.83;;
4698;SDS011;33708;49.466;11.176;2023-02-26T14:36:02;7.57;;;1.40;;
4698;SDS011;33708;49.466;11.176;2023-02-26T14:38:30;7.67;;;1.47;;
4698;SDS011;33708;49.466;11.176;2023-02-26T14:41:02;8.23;;;1.10;;
4698;SDS011;33708;49.466;11.176;2023-02-26T14:46:04;8.70;;;1.30;;
4698;SDS011;33708;49.466;11.176;2023-02-26T14:48:31;7.10;;;0.90;;
4698;SDS011;33708;49.466;11.176;2023-02-26T14:56:14;11.00;;;1.00;;
4698;SDS011;33708;49.466;11.176;2023-02-26T14:58:54;7.00;;;1.03;;
4698;SDS011;33708;49.466;11.176;2023-02-26T15:02:16;7.73;;;1.00;;
4698;SDS011;33708;49.466;11.176;2023-02-26T15:07:42;7.60;;;1.27;;
4698;SDS011;33708;49.466;11.176;2023-02-26T15:10:29;6.93;;;1.17;;
4698;SDS011;33708;49.466;11.176;2023-02-26T15:24:06;7.33;;;1.30;;
4698;SDS011;33708;49.466;11.176;2023-02-26T15:26:36;8.67;;;1.67;;
4698;SDS011;33708;49.466;11.176;2023-02-26T15:29:07;8.30;;;1.93;;
4698;SDS011;33708;49.466;11.176;2023-02-26T15:31:39;7.60;;;1.57;;
4698;SDS011;33708;49.466;11.176;2023-02-26T15:34:09;7.70;;;1.43;;
4698;SDS011;33708;49.466;11.176;2023-02-26T15:36:38;7.27;;;1.20;;
4698;SDS011;33708;49.466;11.176;2023-02-26T15:39:07;8.80;;;1.63;;
4698;SDS011;33708;49.466;11.176;2023-02-26T15:41:33;9.60;;;2.20;;
4698;SDS011;33708;49.466;11.176;2023-02-26T15:44:04;8.40;;;1.70;;
4698;SDS011;33708;49.466;11.176;2023-02-26T15:46:40;7.07;;;1.03;;
4698;SDS011;33708;49.466;11.176;2023-02-26T15:49:12;7.70;;;1.33;;
4698;SDS011;33708;49.466;11.176;2023-02-26T15:51:58;7.40;;;1.10;;
4698;SDS011;33708;49.466;11.176;2023-02-26T15:54:28;9.40;;;1.30;;
4698;SDS011;33708;49.466;11.176;2023-02-26T15:57:05;8.50;;;1.50;;
4698;SDS011;33708;49.466;11.176;2023-02-26T15:59:33;10.20;;;1.50;;
4698;SDS011;33708;49.466;11.176;2023-02-26T16:02:25;6.60;;;1.07;;
4698;SDS011;33708;49.466;11.176;2023-02-26T16:04:54;8.73;;;1.40;;
4698;SDS011;33708;49.466;11.176;2023-02-26T16:07:19;10.27;;;1.53;;
4698;SDS011;33708;49.466;11.176;2023-02-26T16:09:47;7.67;;;1.33;;
4698;SDS011;33708;49.466;11.176;2023-02-26T16:12:19;7.30;;;1.30;;
4698;SDS011;33708;49.466;11.176;2023-02-26T16:14:58;8.10;;;1.23;;
4698;SDS011;33708;49.466;11.176;2023-02-26T16:17:37;7.77;;;1.63;;
4698;SDS011;33708;49.466;11.176;2023-02-26T16:20:10;7.03;;;1.30;;
4698;SDS011;33708;49.466;11.176;2023-02-26T16:22:43;9.60;;;1.60;;
4698;SDS011;33708;49.466;11.176;2023-02-26T16:25:23;8.87;;;1.37;;
4698;SDS011;33708;49.466;11.176;2023-02-26T16:27:58;9.20;;;1.70;;
4698;SDS011;33708;49.466;11.176;2023-02-26T16:30:29;7.50;;;1.30;;
4698;SDS011;33708;49.466;11.176;2023-02-26T16:33:00;7.40;;;1.73;;
4698;SDS011;33708;49.466;11.176;2023-02-26T16:35:31;7.27;;;1.20;;
4698;SDS011;33708;49.466;11.176;2023-02-26T16:38:16;6.57;;;1.10;;
4698;SDS011;33708;49.466;11.176;2023-02-26T16:40:44;6.67;;;1.10;;
4698;SDS011;33708;49.466;11.176;2023-02-26T16:45:47;7.50;;;1.50;;
4698;SDS011;33708;49.466;11.176;2023-02-26T16:48:29;6.87;;;1.07;;
4698;SDS011;33708;49.466;11.176;2023-02-26T16:51:08;7.60;;;1.70;;
4698;SDS011;33708;49.466;11.176;2023-02-26T16:56:10;6.70;;;1.30;;
4698;SDS011;33708;49.466;11.176;2023-02-26T16:58:49;6.50;;;1.10;;
4698;SDS011;33708;49.466;11.176;2023-02-26T17:04:18;8.90;;;1.40;;
4698;SDS011;33708;49.466;11.176;2023-02-26T17:06:50;7.00;;;1.20;;
4698;SDS011;33708;49.466;11.176;2023-02-26T17:09:36;8.57;;;1.40;;
4698;SDS011;33708;49.466;11.176;2023-02-26T17:12:17;7.17;;;1.90;;
4698;SDS011;33708;49.466;11.176;2023-02-26T17:14:46;7.17;;;1.77;;
4698;SDS011;33708;49.466;11.176;2023-02-26T17:17:20;6.40;;;1.13;;
4698;SDS011;33708;49.466;11.176;2023-02-26T17:19:46;6.90;;;1.73;;
4698;SDS011;33708;49.466;11.176;2023-02-26T17:22:13;7.20;;;1.67;;
4698;SDS011;33708;49.466;11.176;2023-02-26T17:24:44;7.40;;;1.50;;
4698;SDS011;33708;49.466;11.176;2023-02-26T17:27:16;7.17;;;1.50;;
4698;SDS011;33708;49.466;11.176;2023-02-26T17:29:48;8.57;;;1.30;;
4698;SDS011;33708;49.466;11.176;2023-02-26T17:32:17;7.10;;;1.33;;
4698;SDS011;33708;49.466;11.176;2023-02-26T17:34:44;7.93;;;1.87;;
4698;SDS011;33708;49.466;11.176;2023-02-26T17:37:10;7.80;;;1.87;;
4698;SDS011;33708;49.466;11.176;2023-02-26T17:39:37;10.63;;;2.20;;
4698;SDS011;33708;49.466;11.176;2023-02-26T17:42:03;8.60;;;1.93;;
4698;SDS011;33708;49.466;11.176;2023-02-26T17:44:33;8.17;;;2.00;;
4698;SDS011;33708;49.466;11.176;2023-02-26T17:46:59;8.83;;;2.17;;
4698;SDS011;33708;49.466;11.176;2023-02-26T17:49:24;7.47;;;1.80;;
4698;SDS011;33708;49.466;11.176;2023-02-26T17:51:50;7.00;;;1.20;;
4698;SDS011;33708;49.466;11.176;2023-02-26T17:54:17;7.23;;;1.50;;
4698;SDS011;33708;49.466;11.176;2023-02-26T17:56:43;9.53;;;2.23;;
4698;SDS011;33708;49.466;11.176;2023-02-26T17:59:09;8.70;;;1.70;;
4698;SDS011;33708;49.466;11.176;2023-02-26T18:01:37;6.93;;;1.50;;
4698;SDS011;33708;49.466;11.176;2023-02-26T18:04:03;7.80;;;1.77;;
4698;SDS011;33708;49.466;11.176;2023-02-26T18:06:33;8.13;;;2.17;;
4698;SDS011;33708;49.466;11.176;2023-02-26T18:09:01;7.47;;;1.60;;
4698;SDS011;33708;49.466;11.176;2023-02-26T18:11:29;6.30;;;1.30;;
4698;SDS011;33708;49.466;11.176;2023-02-26T18:13:56;8.13;;;2.03;;
4698;SDS011;33708;49.466;11.176;2023-02-26T18:16:24;7.90;;;2.03;;
4698;SDS011;33708;49.466;11.176;2023-02-26T18:18:53;6.60;;;1.50;;
4698;SDS011;33708;49.466;11.176;2023-02-26T18:21:18;8.17;;;2.03;;
4698;SDS011;33708;49.466;11.176;2023-02-26T18:23:44;7.63;;;1.67;;
4698;SDS011;33708;49.466;11.176;2023-02-26T18:26:11;8.17;;;1.83;;
4698;SDS011;33708;49.466;11.176;2023-02-26T18:28:40;10.43;;;1.73;;
4698;SDS011;33708;49.466;11.176;2023-02-26T18:31:05;7.83;;;2.20;;
4698;SDS011;33708;49.466;11.176;2023-02-26T18:33:33;8.27;;;1.87;;
4698;SDS011;33708;49.466;11.176;2023-02-26T18:36:01;7.17;;;1.80;;